N27 weather

Bradford County Airport
Towanda, Pennsylvania, United States

Public forecast

Using degrees Fahrenheit for public forecast. Weather courtesy of forecast.io.

METAR (pilot weather report)

Closest report is Elmira Corning Regional Airport, 32.1 nm (59.4 km) NW. Retrieved 2019/04/18 17:53 UTC (14 minutes ago):

KELM 181753Z 17008G19KT 10SM CLR 18/10 A2983 RMK AO2 SLP100 T01830100 10183 20128 58027

TAF (pilot weather forecast)

Closest forecast is Elmira Corning Regional Airport, 32.1 nm (59.4 km) NW. Retrieved 2019/04/18 12:36 UTC (6 hours ago):

TAF KELM 181133Z 1812/1912 19005KT P6SM BKN025 OVC040 FM181400 19012KT P6SM BKN035 FM181600 21013G22KT P6SM BKN040 FM190100 18009KT P6SM BKN080 WS020/21040KT FM191000 19007KT P6SM SCT020 BKN040